Latest Weather Observations for ACT PCS1

IDN60901

Issued at 8:21 pm EST Wednesday 21 April 2021 (issued every 10 minutes, with the page automatically refreshed every 10 minutes)

About weather observations | Map of Canberra area stations | Latest observations for Canberra area | Other Formats
Station Details ID: 250104 Name: ACT PCS1 Lat: -35.41 Lon: 148.90 Height: 1338.0 m

Portable automatic weather stations (PAWS) are operated by other organisations, such as Fire and Emergency Services, and are included here by agreement. Portable stations may be deployed to a location for a short period and their location may be subject to change without notice. Wind observations from these stations are provided from heights of either three (3) or ten (10) metres above ground level (AGL).

Data from the previous 72 hours. | See also: Recent months for locations in Aust Capital Territory
Date/Time
EST
Temp
°C
App
Temp
°C
Dew
Point
°C
Rel
Hum
%
Delta-T
°C
Wind Press
QNH
hPa
Press
MSL
hPa
Rain since
9am
mm
Dir  Spd
km/h
Gust
km/h
Spd
kts
Gust
kts
21/08:10pm 2.4 -0.3 0.5 87 0.8 SSW 4 6 2 3 - - 0.0
21/08:00pm 2.5 -0.1 0.8 88 0.7 SW 4 6 2 3 - - 0.0
21/07:50pm 2.7 0.1 0.8 87 0.8 SW 4 6 2 3 - - 0.0
21/07:40pm 2.8 -0.1 1.2 89 0.7 WSW 6 6 3 3 - - 0.0
21/07:30pm 3.1 0.2 1.3 88 0.8 WSW 6 6 3 3 - - 0.0
21/07:20pm 3.2 0.3 1.3 87 0.8 WSW 6 6 3 3 - - 0.0
21/07:10pm 3.4 0.9 1.6 88 0.8 WSW 4 6 2 3 - - 0.0
21/07:00pm 3.8 1.4 1.9 87 0.8 WSW 4 6 2 3 - - 0.0
21/06:50pm 4.3 1.5 1.8 84 1.1 WSW 6 6 3 3 - - 0.0
21/06:40pm 4.7 1.9 2.2 84 1.1 W 6 7 3 4 - - 0.0
21/06:30pm 4.8 2.1 2.5 85 1.0 W 6 7 3 4 - - 0.0
21/06:20pm 5.0 2.0 2.3 83 1.2 W 7 9 4 5 - - 0.0
21/06:10pm 5.0 2.0 2.3 83 1.2 W 7 7 4 4 - - 0.0
21/06:00pm 5.2 2.2 2.3 81 1.3 WNW 7 7 4 4 - - 0.0
21/05:50pm 5.4 2.4 2.0 79 1.5 W 7 9 4 5 - - 0.0
21/05:40pm 5.7 2.7 2.1 78 1.6 W 7 7 4 4 - - 0.0
21/05:30pm 6.1 3.4 2.7 79 1.5 W 6 6 3 3 - - 0.0
21/05:20pm 6.4 3.7 2.7 77 1.7 W 6 6 3 3 - - 0.0
21/05:10pm 6.6 4.0 3.1 78 1.6 W 6 6 3 3 - - 0.0
21/05:00pm 7.2 4.6 3.0 74 1.9 NW 6 9 3 5 - - 0.0
21/04:50pm 7.9 5.1 2.2 67 2.6 WNW 6 7 3 4 - - 0.0
21/04:40pm 8.6 5.9 2.5 65 2.8 NNW 6 7 3 4 - - 0.0
21/04:30pm 8.9 6.6 3.0 66 2.7 NNW 4 6 2 3 - - 0.0
21/04:20pm 8.7 6.0 2.5 65 2.8 N 6 6 3 3 - - 0.0
21/04:10pm 9.6 7.3 2.8 62 3.2 NNW 4 6 2 3 - - 0.0
21/04:00pm 9.8 7.5 3.0 62 3.2 N 4 6 2 3 - - 0.0
21/03:50pm 9.5 6.8 2.7 62 3.1 NW 6 6 3 3 - - 0.0
21/03:40pm 9.4 7.1 2.7 63 3.1 NNW 4 7 2 4 - - 0.0
21/03:30pm 8.7 6.8 2.7 66 2.8 E 2 4 1 2 - - 0.0
21/03:20pm 7.9 6.1 3.4 73 2.1 E 2 4 1 2 - - 0.0
21/03:10pm 9.2 7.1 4.0 70 2.5 E 4 6 2 3 - - 0.0
21/03:00pm 9.8 7.7 3.8 66 2.9 E 4 6 2 3 - - 0.0
21/02:50pm 10.0 7.9 3.9 66 2.9 ENE 4 6 2 3 - - 0.0
21/02:40pm 10.2 8.2 4.4 67 2.8 ENE 4 6 2 3 - - 0.0
21/02:30pm 10.3 8.2 3.9 64 3.1 ENE 4 6 2 3 - - 0.0
21/02:20pm 9.0 6.9 4.0 71 2.4 E 4 4 2 2 - - 0.0
21/02:10pm 7.7 5.5 3.1 72 2.1 ENE 4 6 2 3 - - 0.0
21/02:00pm 7.9 5.6 3.0 71 2.3 ENE 4 6 2 3 - - 0.0
21/01:50pm 8.2 6.0 3.6 73 2.1 ENE 4 4 2 2 - - 0.0
21/01:40pm 8.6 6.4 3.3 69 2.5 ENE 4 6 2 3 - - 0.0
21/01:30pm 9.3 7.1 3.6 67 2.7 NE 4 6 2 3 - - 0.0
21/01:20pm 8.2 5.9 2.8 69 2.5 NNE 4 7 2 4 - - 0.0
21/01:10pm 8.2 6.0 3.4 72 2.2 NNE 4 6 2 3 - - 0.0
21/01:00pm 7.6 5.3 2.7 71 2.2 E 4 7 2 4 - - 0.0
21/12:50pm 8.2 5.9 3.0 70 2.4 NNE 4 6 2 3 - - 0.0
21/12:40pm 8.7 6.4 2.6 65 2.8 E 4 4 2 2 - - 0.0
21/12:30pm 8.8 6.6 3.4 69 2.5 NE 4 6 2 3 - - 0.0
21/12:20pm 9.0 6.2 2.3 63 3.1 ENE 6 6 3 3 - - 0.0
21/12:10pm 9.0 6.3 2.7 64 2.9 ENE 6 7 3 4 - - 0.0
21/12:00pm 9.2 6.6 3.3 66 2.8 ENE 6 7 3 4 - - 0.0
21/11:50am 9.3 6.7 3.3 66 2.8 NE 6 6 3 3 - - 0.0
21/11:40am 8.9 6.6 2.8 65 2.8 ENE 4 6 2 3 - - 0.0
21/11:30am 8.9 6.2 2.4 64 3.0 ENE 6 7 3 4 - - 0.0
21/11:20am 8.3 5.5 2.2 65 2.8 ENE 6 7 3 4 - - 0.0
21/11:10am 7.6 4.9 2.6 70 2.3 ENE 6 7 3 4 - - 0.0
21/11:00am 7.9 5.0 2.4 68 2.5 ENE 7 9 4 5 - - 0.0
21/10:50am 7.7 5.0 2.8 71 2.2 ENE 6 7 3 4 - - 0.0
21/10:40am 7.4 4.6 2.1 69 2.4 ENE 6 7 3 4 - - 0.0
21/10:30am 8.1 5.4 2.6 68 2.5 E 6 6 3 3 - - 0.0
21/10:20am 8.4 5.9 1.8 63 3.0 NNE 4 7 2 4 - - 0.0
21/10:10am 8.0 5.7 2.7 69 2.4 N 4 6 2 3 - - 0.0
21/10:00am 7.8 5.4 2.1 67 2.6 ENE 4 6 2 3 - - 0.0
21/09:50am 7.3 4.7 0.9 64 2.8 ENE 4 7 2 4 - - 0.0
21/09:40am 7.3 4.3 1.0 64 2.7 ENE 6 7 3 4 - - 0.0
21/09:30am 6.9 3.8 0.3 63 2.8 ENE 6 7 3 4 - - 0.0
21/09:20am 6.9 4.2 0.6 64 2.7 ENE 4 6 2 3 - - 0.0
21/09:10am 6.4 3.5 1.6 71 2.1 E 6 7 3 4 - - 0.0
21/09:00am 6.3 3.8 1.4 71 2.1 E 4 6 2 3 - - 3.6
21/08:50am 5.8 2.7 0.1 67 2.4 ENE 6 7 3 4 - - 3.6
21/08:40am 5.9 2.9 1.8 75 1.8 E 7 9 4 5 - - 3.6
21/08:30am 5.7 2.5 0.7 70 2.1 ENE 7 9 4 5 - - 3.6
21/08:20am 5.3 1.8 -1.0 64 2.6 ENE 7 9 4 5 - - 3.6
21/08:10am 5.0 2.3 0.1 70 2.0 ENE 4 9 2 5 - - 3.6
21/08:00am 3.9 1.1 -0.7 72 1.9 NW 4 6 2 3 - - 3.6
21/07:50am 3.4 0.3 -2.7 64 2.3 WSW 4 6 2 3 - - 3.6
21/07:40am 3.2 0.2 -1.7 70 1.9 NE 4 7 2 4 - - 3.6
21/07:30am 2.4 -1.2 -4.0 62 2.3 W 6 7 3 4 - - 3.6
21/07:20am 1.8 -1.5 -4.1 65 2.2 WNW 4 6 2 3 - - 3.6
21/07:10am 1.2 -2.4 -3.8 69 1.9 W 6 9 3 5 - - 3.6
21/07:00am 0.7 -2.8 -2.9 77 1.4 WSW 6 7 3 4 - - 3.6
21/06:50am 0.4 -2.7 -2.9 78 1.2 SW 4 6 2 3 - - 3.6
21/06:40am 0.1 -3.0 -2.7 81 1.0 WNW 4 6 2 3 - - 3.6
21/06:30am 0.0 -3.0 -1.9 87 0.7 WSW 4 6 2 3 - - 3.6
21/06:20am 0.0 -3.0 -1.6 89 0.6 WSW 4 6 2 3 - - 3.6
21/06:10am 0.1 -2.5 -1.7 88 0.7 SW 2 4 1 2 - - 3.6
21/06:00am 0.1 -2.5 -1.8 87 0.7 SW 2 4 1 2 - - 3.6
21/05:50am 0.2 -2.4 -1.7 87 0.7 SSW 2 4 1 2 - - 3.6
21/05:40am 0.3 -2.7 -1.9 85 0.8 WNW 4 7 2 4 - - 3.6
21/05:30am 0.1 -2.9 -1.5 89 0.6 W 4 4 2 2 - - 3.6
21/05:20am 0.2 -2.7 -1.2 90 0.5 SW 4 6 2 3 - - 3.6
21/05:10am 0.2 -2.7 -1.0 92 0.5 WSW 4 6 2 3 - - 3.6
21/05:00am 0.3 -2.2 -0.7 93 0.4 SSW 2 6 1 3 - - 3.6
21/04:50am 0.5 -1.9 -0.4 94 0.4 ENE 2 4 1 2 - - 3.6
21/04:40am 0.9 -2.0 -0.9 88 0.7 W 4 7 2 4 - - 3.6
21/04:30am 0.9 -2.0 -1.3 85 0.8 WSW 4 6 2 3 - - 3.6
21/04:20am 0.8 -2.6 -0.8 89 0.6 SW 7 9 4 5 - - 3.6
21/04:10am 0.8 -2.6 -0.5 91 0.5 SW 7 11 4 6 - - 3.6
21/04:00am 0.9 -2.4 -0.2 92 0.4 SW 7 9 4 5 - - 3.6
21/03:50am 0.9 -2.1 0.5 97 0.2 SW 6 7 3 4 - - 3.6
21/03:40am 1.1 -1.5 0.7 97 0.2 SW 4 6 2 3 - - 3.6
21/03:30am 1.4 -1.2 1.0 97 0.2 SW 4 6 2 3 - - 3.6
21/03:20am 1.8 -0.8 1.2 96 0.2 SW 4 7 2 4 - - 3.6
21/03:10am 1.9 -1.0 1.4 96 0.2 SW 6 9 3 5 - - 3.6
21/03:00am 2.1 -0.4 1.6 96 0.2 WSW 4 7 2 4 - - 3.6
21/02:50am 2.3 -0.6 1.5 94 0.3 WSW 6 9 3 5 - - 3.6
21/02:40am 2.1 -0.7 1.9 99 0.1 WSW 6 7 3 4 - - 3.6
21/02:30am 2.1 - 2.2 - - SW 6 9 3 5 - - 3.6
21/02:20am 2.2 - 2.3 - - SSW 6 6 3 3 - - 3.6
21/02:10am 2.3 -0.5 2.3 100 0.0 SSW 6 9 3 5 - - 3.6
21/02:00am 2.4 -0.3 2.4 100 0.0 S 6 6 3 3 - - 3.4
21/01:50am 2.6 -0.1 2.6 100 0.0 S 6 7 3 4 - - 3.4
21/01:40am 2.8 0.1 2.8 100 0.0 S 6 7 3 4 - - 3.4
21/01:30am 2.9 0.2 2.9 100 0.0 S 6 7 3 4 - - 3.4
21/01:20am 3.0 0.4 3.0 100 0.0 SW 6 9 3 5 - - 3.4
21/01:10am 3.1 0.5 3.1 100 0.0 SW 6 7 3 4 - - 3.4
21/01:00am 3.3 0.7 3.3 100 0.0 SW 6 7 3 4 - - 3.4
21/12:50am 3.1 0.5 3.1 100 0.0 SSW 6 7 3 4 - - 3.4
21/12:40am 3.2 1.0 3.2 100 0.0 SW 4 6 2 3 - - 3.4
21/12:30am 3.4 0.8 3.4 100 0.0 SW 6 7 3 4 - - 3.4
21/12:20am 3.6 1.1 3.6 100 0.0 SW 6 9 3 5 - - 3.4
21/12:10am 3.7 1.0 3.7 100 0.0 SSW 7 7 4 4 - - 3.4
21/12:00am 3.9 1.2 3.9 100 0.0 S 7 11 4 6 - - 3.4
 
Date/Time
EST
Temp
°C
App
Temp
°C
Dew
Point
°C
Rel
Hum
%
Delta-T
°C
Wind Press
QNH
hPa
Press
MSL
hPa
Rain since
9am
mm
Dir  Spd
km/h
Gust
km/h
Spd
kts
Gust
kts
20/11:50pm 4.1 1.7 4.1 100 0.0 SSW 6 7 3 4 - - 3.4
20/11:40pm 4.2 1.8 4.2 100 0.0 SSW 6 7 3 4 - - 3.4
20/11:30pm 4.3 1.9 4.3 100 0.0 WSW 6 7 3 4 - - 3.4
20/11:20pm 4.2 1.8 4.2 100 0.0 WSW 6 9 3 5 - - 3.4
20/11:10pm 4.3 - 4.4 - - NW 6 7 3 4 - - 3.4
20/11:00pm 4.4 2.0 4.4 100 0.0 NW 6 7 3 4 - - 3.4
20/10:50pm 4.5 2.0 4.5 100 0.0 WNW 7 9 4 5 - - 3.2
20/10:40pm 4.6 2.1 4.6 100 0.0 WNW 7 9 4 5 - - 3.0
20/10:30pm 4.7 2.4 4.7 100 0.0 NNW 6 9 3 5 - - 2.6
20/10:20pm 4.8 2.5 4.8 100 0.0 W 6 7 3 4 - - 2.6
20/10:10pm 4.8 2.5 4.8 100 0.0 NNW 6 7 3 4 - - 2.6
20/10:00pm 4.8 2.3 4.8 100 0.0 NW 7 7 4 4 - - 2.6
20/09:50pm 4.7 2.2 4.7 100 0.0 W 7 9 4 5 - - 2.4
20/09:40pm 4.6 2.3 4.6 100 0.0 S 6 9 3 5 - - 2.4
20/09:30pm 4.9 2.0 4.9 100 0.0 SW 9 11 5 6 - - 2.4
20/09:20pm 5.0 2.5 5.0 100 0.0 S 7 9 4 5 - - 2.4
20/09:10pm 4.9 2.6 4.9 100 0.0 SSE 6 7 3 4 - - 2.2
20/09:00pm 4.8 2.5 4.8 100 0.0 SE 6 7 3 4 - - 1.8
20/08:50pm 4.7 2.2 4.7 100 0.0 ESE 7 9 4 5 - - 1.8
20/08:40pm 4.8 2.3 4.8 100 0.0 NW 7 9 4 5 - - 1.8
20/08:30pm 4.9 2.4 4.9 100 0.0 N 7 7 4 4 - - 1.8
20/08:20pm 5.1 2.7 5.1 100 0.0 NNW 7 9 4 5 - - 1.8
20/08:10pm 5.2 2.8 5.2 100 0.0 NW 7 11 4 6 - - 1.4
20/08:00pm 5.1 2.7 5.1 100 0.0 S 7 9 4 5 - - 1.2
20/07:50pm 5.0 2.5 5.0 100 0.0 S 7 7 4 4 - - 1.0
20/07:40pm 5.4 2.9 5.0 97 0.2 W 7 9 4 5 - - 1.0
20/07:30pm 7.4 4.9 4.8 83 1.2 S 7 13 4 7 - - 0.2
20/07:20pm 7.4 4.7 2.5 71 2.2 SSE 6 7 3 4 - - 0.0
20/07:10pm 7.2 4.5 2.5 72 2.1 S 6 7 3 4 - - 0.0
20/07:00pm 7.3 4.4 2.5 71 2.2 SW 7 9 4 5 - - 0.0
20/06:50pm 7.3 4.4 2.5 71 2.2 NNW 7 9 4 5 - - 0.0
20/06:40pm 7.5 4.2 2.5 70 2.3 NW 9 13 5 7 - - 0.0
20/06:30pm 7.5 4.2 2.3 69 2.3 NW 9 11 5 6 - - 0.0
20/06:20pm 7.6 4.3 2.2 68 2.4 N 9 11 5 6 - - 0.0
20/06:10pm 7.7 4.7 2.2 68 2.5 NNW 7 9 4 5 - - 0.0
20/06:00pm 7.8 4.4 2.1 67 2.6 N 9 11 5 6 - - 0.0
20/05:50pm 7.8 4.5 2.4 68 2.4 N 9 11 5 6 - - 0.0
20/05:40pm 7.9 4.6 2.5 69 2.5 NW 9 11 5 6 - - 0.0
20/05:30pm 8.0 4.8 2.8 70 2.4 NNW 9 11 5 6 - - 0.0
20/05:20pm 8.1 5.3 3.0 70 2.3 N 7 11 4 6 - - 0.0
20/05:10pm 8.4 5.2 3.0 69 2.5 NNW 9 11 5 6 - - 0.0
20/05:00pm 8.6 5.4 3.3 69 2.5 N 9 13 5 7 - - 0.0
20/04:50pm 9.1 5.9 3.3 67 2.7 NW 9 11 5 6 - - 0.0
20/04:40pm 9.4 6.3 3.5 66 2.8 N 9 11 5 6 - - 0.0
20/04:30pm 9.0 6.3 3.6 69 2.5 N 7 11 4 6 - - 0.0
20/04:20pm 9.3 6.6 3.5 67 2.7 NNW 7 11 4 6 - - 0.0
20/04:10pm 10.6 7.6 3.9 63 3.2 NNW 9 9 5 5 - - 0.0
20/04:00pm 11.7 8.6 3.6 57 3.9 NW 9 11 5 6 - - 0.0
20/03:50pm 11.5 8.5 3.9 59 3.7 N 9 11 5 6 - - 0.0
20/03:40pm 11.7 8.6 3.6 57 3.9 NNW 9 13 5 7 - - 0.0
20/03:30pm 11.7 8.2 3.7 58 3.9 NW 11 13 6 7 - - 0.0
20/03:20pm 12.0 8.9 3.5 56 4.1 NW 9 13 5 7 - - 0.0
20/03:10pm 12.0 8.9 3.5 56 4.1 NNW 9 11 5 6 - - 0.0
20/03:00pm 12.0 9.0 4.0 58 3.9 WNW 9 11 5 6 - - 0.0
20/02:50pm 12.6 9.7 4.4 57 4.0 W 9 11 5 6 - - 0.0
20/02:40pm 13.1 10.0 3.7 53 4.6 NW 9 13 5 7 - - 0.0
20/02:30pm 13.2 10.2 4.3 55 4.4 W 9 11 5 6 - - 0.0
20/02:20pm 13.4 10.7 3.7 52 4.7 SW 7 9 4 5 - - 0.0
20/02:10pm 13.0 9.9 3.7 53 4.5 NNW 9 15 5 8 - - 0.0
20/02:00pm 13.0 10.0 3.9 54 4.4 WNW 9 11 5 6 - - 0.0
20/01:50pm 12.5 9.4 3.7 55 4.3 W 9 13 5 7 - - 0.0
20/01:40pm 12.2 9.1 3.7 56 4.1 NW 9 13 5 7 - - 0.0
20/01:30pm 12.6 9.6 4.0 56 4.2 WNW 9 11 5 6 - - 0.0
20/01:20pm 12.3 9.6 3.5 55 4.2 NW 7 9 4 5 - - 0.0
20/01:10pm 10.0 6.8 3.3 63 3.2 NW 9 11 5 6 - - 0.0
20/01:00pm 10.5 7.7 3.0 60 3.5 NW 7 9 4 5 - - 0.0
20/12:50pm 10.3 7.1 2.8 59 3.5 WNW 9 11 5 6 - - 0.0
20/12:40pm 10.8 8.0 3.4 60 3.5 W 7 9 4 5 - - 0.0
20/12:30pm 10.8 7.6 3.0 58 3.7 W 9 9 5 5 - - 0.0
20/12:20pm 9.4 6.6 3.0 64 3.0 NW 7 11 4 6 - - 0.0
20/12:10pm 9.5 6.3 2.8 63 3.1 NW 9 11 5 6 - - 0.0
20/12:00pm 9.4 6.5 2.5 62 3.2 WNW 7 9 4 5 - - 0.0
20/11:50am 9.6 6.8 3.3 65 3.0 NNW 7 9 4 5 - - 0.0
20/11:40am 9.2 6.5 3.8 69 2.6 NNW 7 7 4 4 - - 0.0
20/11:30am 9.0 6.2 3.3 67 2.7 W 7 15 4 8 - - 0.0
20/11:20am 9.2 6.5 3.9 69 2.5 WNW 7 11 4 6 - - 0.0
20/11:10am 9.4 6.7 3.9 68 2.6 WNW 7 11 4 6 - - 0.0
20/11:00am 9.4 6.3 3.8 68 2.7 WNW 9 11 5 6 - - 0.0
20/10:50am 9.3 6.7 4.1 70 2.5 WNW 7 9 4 5 - - 0.0
20/10:40am 9.4 6.8 4.2 70 2.5 WNW 7 11 4 6 - - 0.0
20/10:30am 9.3 6.7 4.2 70 2.4 WNW 7 9 4 5 - - 0.0
20/10:20am 10.0 7.5 4.5 68 2.7 WNW 7 7 4 4 - - 0.0
20/10:10am 10.1 7.5 4.3 67 2.8 NW 7 11 4 6 - - 0.0
20/10:00am 10.1 7.5 4.0 66 2.9 WNW 7 9 4 5 - - 0.0
20/09:50am 9.7 7.1 4.0 67 2.7 W 7 9 4 5 - - 0.0
20/09:40am 9.8 7.2 4.2 68 2.7 NW 7 9 4 5 - - 0.0
20/09:30am 9.7 7.1 4.2 68 2.6 WNW 7 9 4 5 - - 0.0
20/09:20am 9.2 6.2 4.3 71 2.3 WNW 9 11 5 6 - - 0.0
20/09:10am 8.5 5.5 4.0 73 2.1 WNW 9 11 5 6 - - 0.0
20/09:00am 9.0 6.0 4.1 71 2.3 W 9 11 5 6 - - 0.0
20/08:50am 8.7 5.7 3.9 72 2.3 WNW 9 9 5 5 - - 0.0
20/08:40am 8.3 5.3 3.9 74 2.1 W 9 9 5 5 - - 0.0
20/08:30am 7.8 4.8 3.9 76 1.8 W 9 11 5 6 - - 0.0
20/08:20am 7.5 4.4 3.7 77 1.8 W 9 11 5 6 - - 0.0
20/08:10am 7.1 4.0 3.7 79 1.6 W 9 11 5 6 - - 0.0
20/08:00am 7.0 3.9 3.5 78 1.6 W 9 11 5 6 - - 0.0
20/07:50am 6.6 3.4 3.3 79 1.5 W 9 11 5 6 - - 0.0
20/07:40am 6.2 2.7 3.3 82 1.3 W 11 13 6 7 - - 0.0
20/07:30am 5.5 2.3 3.3 86 1.0 W 9 11 5 6 - - 0.0
20/07:20am 5.1 1.9 3.3 88 0.8 WSW 9 13 5 7 - - 0.0
20/07:10am 5.1 2.0 3.4 89 0.8 W 9 13 5 7 - - 0.0
20/07:00am 5.1 1.9 3.3 88 0.8 W 9 13 5 7 - - 0.0
20/06:50am 5.0 1.5 3.3 89 0.8 WNW 11 13 6 7 - - 0.0
20/06:40am 4.7 1.5 3.3 91 0.6 W 9 11 5 6 - - 0.0
20/06:30am 4.6 1.4 3.2 91 0.6 WSW 9 13 5 7 - - 0.0
20/06:20am 4.6 1.4 3.2 91 0.6 W 9 11 5 6 - - 0.0
20/06:10am 4.7 1.5 3.3 91 0.6 W 9 15 5 8 - - 0.0
20/06:00am 4.6 1.4 3.2 91 0.6 W 9 11 5 6 - - 0.0
20/05:50am 4.6 1.4 3.2 91 0.6 WNW 9 11 5 6 - - 0.0
20/05:40am 4.6 1.4 3.2 91 0.6 WNW 9 15 5 8 - - 0.0
20/05:30am 4.3 1.5 3.2 93 0.5 NW 7 11 4 6 - - 0.0
20/05:20am 4.3 1.5 3.2 93 0.5 W 7 9 4 5 - - 0.0
20/05:10am 4.2 1.6 3.2 93 0.4 W 6 9 3 5 - - 0.0
20/05:00am 4.3 1.5 3.2 93 0.5 W 7 9 4 5 - - 0.0
20/04:50am 4.3 1.5 3.0 91 0.6 WSW 7 7 4 4 - - 0.0
20/04:40am 4.3 1.6 2.9 91 0.6 WSW 6 7 3 4 - - 0.0
20/04:30am 4.3 1.4 2.8 90 0.7 SSW 7 7 4 4 - - 0.0
20/04:20am 4.3 1.4 2.7 89 0.7 SW 7 9 4 5 - - 0.0
20/04:10am 4.4 1.5 2.5 87 0.8 W 7 9 4 5 - - 0.0
20/04:00am 4.5 1.8 2.6 87 0.8 W 6 9 3 5 - - 0.0
20/03:50am 4.7 1.8 2.5 86 1.0 SW 7 9 4 5 - - 0.0
20/03:40am 4.5 1.6 2.5 87 0.9 WSW 7 9 4 5 - - 0.0
20/03:30am 4.5 1.6 2.6 87 0.8 SW 7 9 4 5 - - 0.0
20/03:20am 4.5 1.6 2.6 87 0.8 W 7 11 4 6 - - 0.0
20/03:10am 4.5 1.6 2.7 88 0.8 W 7 9 4 5 - - 0.0
20/03:00am 4.4 1.5 2.7 89 0.8 SW 7 7 4 4 - - 0.0
20/02:50am 4.3 1.6 2.8 90 0.7 WSW 6 9 3 5 - - 0.0
20/02:40am 4.5 1.6 2.8 89 0.8 SW 7 9 4 5 - - 0.0
20/02:30am 4.5 1.7 2.9 89 0.7 SW 7 7 4 4 - - 0.0
20/02:20am 4.5 1.7 2.9 89 0.7 SW 7 9 4 5 - - 0.0
20/02:10am 4.5 1.7 2.9 89 0.7 SW 7 9 4 5 - - 0.0
20/02:00am 4.6 1.8 2.9 89 0.8 SW 7 9 4 5 - - 0.0
20/01:50am 4.5 1.7 2.9 89 0.7 SW 7 9 4 5 - - 0.0
20/01:40am 4.4 1.8 3.0 91 0.6 WSW 6 7 3 4 - - 0.0
20/01:30am 4.4 1.6 3.0 91 0.6 SW 7 7 4 4 - - 0.0
20/01:20am 4.5 1.9 3.0 90 0.7 SW 6 6 3 3 - - 0.0
20/01:10am 4.6 1.8 3.0 89 0.7 SSW 7 11 4 6 - - 0.0
20/01:00am 4.6 1.4 3.2 91 0.6 SW 9 13 5 7 - - 0.0
20/12:50am 4.7 1.5 3.2 90 0.7 SW 9 11 5 6 - - 0.0
20/12:40am 4.9 1.4 3.3 89 0.7 SW 11 13 6 7 - - 0.0
20/12:30am 4.9 1.8 3.4 90 0.7 SW 9 13 5 7 - - 0.0
20/12:20am 4.9 1.8 3.4 90 0.7 SW 9 11 5 6 - - 0.0
20/12:10am 4.9 1.4 3.5 91 0.6 SW 11 13 6 7 - - 0.0
20/12:00am 4.7 1.6 3.6 93 0.5 SW 9 11 5 6 - - 0.0
 
Date/Time
EST
Temp
°C
App
Temp
°C
Dew
Point
°C
Rel
Hum
%
Delta-T
°C
Wind Press
QNH
hPa
Press
MSL
hPa
Rain since
9am
mm
Dir  Spd
km/h
Gust
km/h
Spd
kts
Gust
kts
19/11:50pm 4.7 2.0 3.9 95 0.4 SW 7 9 4 5 - - 0.0
19/11:40pm 4.8 2.3 3.9 94 0.4 SSW 6 7 3 4 - - 0.0
19/11:30pm 4.9 2.3 4.0 94 0.4 SW 7 9 4 5 - - 0.0
19/11:20pm 4.9 2.3 4.2 95 0.3 SW 7 11 4 6 - - 0.0
19/11:10pm 5.0 2.6 4.3 95 0.3 SW 6 7 3 4 - - 0.0
19/11:00pm 5.1 2.5 4.2 94 0.4 WSW 7 9 4 5 - - 0.0
19/10:50pm 5.1 2.5 4.2 94 0.4 W 7 7 4 4 - - 0.0
19/10:40pm 5.0 2.6 4.3 95 0.3 W 6 7 3 4 - - 0.0
19/10:30pm 5.1 2.7 4.4 95 0.3 W 6 7 3 4 - - 0.0
19/10:20pm 5.1 2.7 4.4 95 0.3 WSW 6 7 3 4 - - 0.0
19/10:10pm 5.1 2.7 4.3 95 0.4 W 6 7 3 4 - - 0.0
19/10:00pm 5.0 2.6 4.5 97 0.2 WSW 6 7 3 4 - - 0.0
19/09:50pm 4.9 2.6 4.6 98 0.1 SW 6 7 3 4 - - 0.0
19/09:40pm 5.0 3.1 4.7 98 0.1 SSW 4 6 2 3 - - 0.0
19/09:30pm 5.2 2.9 4.7 97 0.2 SSW 6 7 3 4 - - 0.0
19/09:20pm 5.4 3.0 4.5 94 0.4 NW 6 6 3 3 - - 0.0
19/09:10pm 5.3 3.3 4.4 94 0.4 W 4 6 2 3 - - 0.0
19/09:00pm 5.4 3.4 4.3 93 0.5 W 4 6 2 3 - - 0.0
19/08:50pm 5.4 3.4 4.3 93 0.5 W 4 6 2 3 - - 0.0
19/08:40pm 5.4 3.4 4.2 92 0.6 W 4 7 2 4 - - 0.0
19/08:30pm 5.4 3.0 4.5 94 0.4 WNW 6 6 3 3 - - 0.0
19/08:20pm 5.5 3.2 4.6 94 0.4 WSW 6 6 3 3 - - 0.0
19/08:10pm 5.7 3.4 4.8 94 0.4 W 6 6 3 3 - - 0.0
19/08:00pm 6.0 3.7 4.8 92 0.6 WNW 6 9 3 5 - - 0.0
19/07:50pm 6.2 3.9 4.8 91 0.7 W 6 7 3 4 - - 0.0
19/07:40pm 6.2 3.9 4.8 91 0.7 SW 6 7 3 4 - - 0.0
19/07:30pm 6.4 4.1 4.9 90 0.7 S 6 7 3 4 - - 0.0
19/07:20pm 6.5 4.0 4.9 89 0.8 S 7 9 4 5 - - 0.0
19/07:10pm 6.6 4.3 4.9 89 0.8 SSW 6 7 3 4 - - 0.0
19/07:00pm 6.8 4.3 4.9 88 0.9 SSW 7 9 4 5 - - 0.0
19/06:50pm 6.9 4.6 4.9 87 1.0 SSW 6 7 3 4 - - 0.0
19/06:40pm 7.1 4.8 4.8 85 1.1 SSW 6 9 3 5 - - 0.0
19/06:30pm 7.3 4.8 4.8 84 1.2 SW 7 9 4 5 - - 0.0
19/06:20pm 7.5 4.6 4.9 83 1.2 SW 9 9 5 5 - - 0.0
19/06:10pm 7.6 4.8 5.0 83 1.2 SW 9 11 5 6 - - 0.0
19/06:00pm 7.8 5.4 5.3 84 1.2 WSW 7 9 4 5 - - 0.0
19/05:50pm 8.1 5.9 5.4 83 1.3 WSW 6 7 3 4 - - 0.0
19/05:40pm 8.6 6.4 5.5 81 1.5 WSW 6 7 3 4 - - 0.0
19/05:30pm 9.1 6.9 5.5 78 1.8 WSW 6 7 3 4 - - 0.0
19/05:20pm 9.4 7.2 5.5 76 1.9 WNW 6 9 3 5 - - 0.0
19/05:10pm 9.8 7.5 5.5 74 2.1 N 7 7 4 4 - - 0.0
19/05:00pm 10.4 8.0 5.4 71 2.5 NW 7 9 4 5 - - 0.0
19/04:50pm 11.2 8.8 5.4 67 2.9 WNW 7 9 4 5 - - 0.0
19/04:40pm 11.8 9.4 5.4 65 3.2 NNW 7 9 4 5 - - 0.0
19/04:30pm 12.4 10.2 5.1 61 3.6 NW 6 9 3 5 - - 0.0
19/04:20pm 12.6 10.1 4.6 58 4.0 WNW 7 9 4 5 - - 0.0
19/04:10pm 11.9 9.4 4.6 61 3.6 WNW 7 9 4 5 - - 0.0
19/04:00pm 12.2 9.6 4.1 57 3.9 NW 7 7 4 4 - - 0.0
19/03:50pm 13.6 11.0 4.1 52 4.7 NNW 7 9 4 5 - - 0.0
19/03:40pm 13.8 11.3 4.7 54 4.5 NE 7 9 4 5 - - 0.0
19/03:30pm 13.8 11.2 4.2 52 4.7 N 7 9 4 5 - - 0.0
19/03:20pm 14.2 11.7 4.9 53 4.7 N 7 9 4 5 - - 0.0
19/03:10pm 14.6 12.1 4.8 52 4.9 NNW 7 9 4 5 - - 0.0
19/03:00pm 15.0 12.2 5.1 51 5.0 NNW 9 9 5 5 - - 0.0
19/02:50pm 15.3 13.0 5.5 52 5.0 NNW 7 9 4 5 - - 0.0
19/02:40pm 15.5 12.7 5.3 50 5.2 NNW 9 9 5 5 - - 0.0
19/02:30pm 16.4 14.0 5.3 47 5.7 NW 7 7 4 4 - - 0.0
19/02:20pm 16.3 14.0 5.9 50 5.4 WNW 7 9 4 5 - - 0.0
19/02:10pm 16.5 14.2 5.8 49 5.6 W 7 9 4 5 - - 0.0
19/02:00pm 16.5 14.0 4.9 46 5.9 WNW 7 9 4 5 - - 0.0
19/01:50pm 16.4 14.0 5.3 47 5.7 NW 7 9 4 5 - - 0.0
19/01:40pm 16.9 14.7 5.2 46 6.0 W 6 7 3 4 - - 0.0
19/01:30pm 16.8 14.5 4.9 45 6.1 W 6 7 3 4 - - 0.0
19/01:20pm 16.6 14.4 5.4 47 5.8 WNW 6 7 3 4 - - 0.0
19/01:10pm 17.0 14.9 5.6 47 5.9 W 6 7 3 4 - - 0.0
19/01:00pm 16.5 14.3 5.4 48 5.7 WNW 6 7 3 4 - - 0.0
19/12:50pm 16.6 14.4 5.4 47 5.8 WNW 6 7 3 4 - - 0.0
19/12:40pm 16.6 14.4 5.1 46 5.9 W 6 7 3 4 - - 0.0
19/12:30pm 16.2 14.1 6.0 51 5.3 WNW 6 7 3 4 - - 0.0
19/12:20pm 16.2 13.8 4.5 45 5.9 W 6 7 3 4 - - 0.0
19/12:10pm 16.1 13.7 4.2 45 6.0 W 6 7 3 4 - - 0.0
19/12:00pm 16.0 13.9 6.0 51 5.2 WSW 6 7 3 4 - - 0.0
19/11:50am 15.7 13.5 5.5 50 5.2 W 6 7 3 4 - - 0.0
19/11:40am 15.3 13.2 5.7 52 4.9 W 6 6 3 3 - - 0.0
19/11:30am 14.9 12.8 5.8 54 4.7 W 6 7 3 4 - - 0.0
19/11:20am 15.1 13.0 5.8 53 4.8 W 6 6 3 3 - - 0.0
19/11:10am 14.7 12.6 5.7 55 4.6 W 6 6 3 3 - - 0.0
19/11:00am 14.4 12.3 5.6 55 4.5 W 6 9 3 5 - - 0.0
19/10:50am 14.5 12.4 5.7 55 4.5 W 6 7 3 4 - - 0.0
19/10:40am 14.4 12.7 6.0 57 4.3 WSW 4 6 2 3 - - 0.0
19/10:30am 13.9 11.8 5.6 57 4.2 W 6 6 3 3 - - 0.0
19/10:20am 13.5 11.3 5.3 57 4.1 W 6 6 3 3 - - 0.0
19/10:10am 13.3 11.1 5.5 59 3.9 W 6 6 3 3 - - 0.0
19/10:00am 12.9 10.8 5.9 62 3.6 WSW 6 6 3 3 - - 0.0
19/09:50am 12.2 9.9 4.8 60 3.7 WSW 6 7 3 4 - - 0.0
19/09:40am 11.7 9.5 5.4 65 3.1 W 6 7 3 4 - - 0.0
19/09:30am 11.5 9.3 5.2 65 3.1 WSW 6 7 3 4 - - 0.0
19/09:20am 11.1 8.8 4.7 64 3.1 WSW 6 6 3 3 - - 0.0
19/09:10am 10.5 8.2 5.0 69 2.7 WSW 6 6 3 3 - - 0.0
19/09:00am 10.0 7.8 5.2 72 2.4 W 6 6 3 3 - - 0.0
19/08:50am 9.4 7.5 4.8 73 2.2 W 4 6 2 3 - - 0.0
19/08:40am 8.8 6.5 4.6 75 2.0 W 6 6 3 3 - - 0.0
19/08:30am 8.5 5.9 4.3 75 2.0 WSW 7 9 4 5 - - 0.0
19/08:20am 8.2 5.6 4.4 77 1.8 WSW 7 7 4 4 - - 0.0
19/08:10am 7.8 5.2 4.1 77 1.7 WSW 7 9 4 5 - - 0.0
19/08:00am 7.3 4.7 4.1 80 1.5 WSW 7 9 4 5 - - 0.0
19/07:50am 6.9 4.2 3.9 81 1.4 WSW 7 7 4 4 - - 0.0
19/07:40am 6.6 4.0 4.0 83 1.2 W 7 7 4 4 - - 0.0
19/07:30am 6.4 3.8 4.0 85 1.1 WSW 7 7 4 4 - - 0.0
19/07:20am 6.2 3.5 3.9 85 1.1 WSW 7 7 4 4 - - 0.0
19/07:10am 6.0 3.3 3.9 86 1.0 WSW 7 7 4 4 - - 0.0
19/07:00am 5.9 3.2 3.7 86 1.0 WSW 7 7 4 4 - - 0.0
19/06:50am 5.8 3.1 3.6 86 1.0 WSW 7 9 4 5 - - 0.0
19/06:40am 5.6 2.9 3.6 87 0.9 WSW 7 9 4 5 - - 0.0
19/06:30am 5.7 3.0 3.6 86 1.0 WSW 7 9 4 5 - - 0.0
19/06:20am 5.7 2.6 3.6 86 1.0 WSW 9 9 5 5 - - 0.0
19/06:10am 5.5 2.8 3.6 87 0.9 WSW 7 9 4 5 - - 0.0
19/06:00am 5.4 2.7 3.6 88 0.8 WSW 7 9 4 5 - - 0.0
19/05:50am 5.3 2.6 3.5 88 0.8 WSW 7 9 4 5 - - 0.0
19/05:40am 5.1 2.4 3.5 89 0.7 WSW 7 9 4 5 - - 0.0
19/05:30am 5.3 2.7 3.4 87 0.9 WSW 6 7 3 4 - - 0.0
19/05:20am 5.4 2.8 3.3 86 1.0 WSW 6 6 3 3 - - 0.0
19/05:10am 5.6 3.0 3.4 86 1.0 WSW 6 6 3 3 - - 0.0
19/05:00am 5.8 3.3 3.7 86 1.0 WSW 6 6 3 3 - - 0.0
19/04:50am 6.0 3.5 3.8 86 1.0 WSW 6 6 3 3 - - 0.0
19/04:40am 6.3 3.8 3.8 84 1.2 WSW 6 6 3 3 - - 0.0
19/04:30am 6.2 4.1 4.0 86 1.0 WSW 4 6 2 3 - - 0.0
19/04:20am 6.1 4.0 4.1 87 0.9 WSW 4 4 2 2 - - 0.0
19/04:10am 6.2 4.1 4.1 86 1.0 WSW 4 4 2 2 - - 0.0
19/04:00am 6.4 4.4 4.2 86 1.0 WSW 4 4 2 2 - - 0.0
19/03:50am 6.6 4.5 4.1 84 1.2 WSW 4 4 2 2 - - 0.0
19/03:40am 6.6 4.9 4.1 84 1.2 W 2 4 1 2 - - 0.0
19/03:30am 6.5 5.2 4.1 85 1.1 CALM 0 2 0 1 - - 0.0
19/03:20am 6.5 4.8 4.2 85 1.1 WSW 2 2 1 1 - - 0.0
19/03:10am 6.6 4.9 4.2 85 1.1 WSW 2 2 1 1 - - 0.0
19/03:00am 6.7 4.7 4.2 84 1.2 WSW 4 4 2 2 - - 0.0
19/02:50am 6.7 4.7 4.2 84 1.2 WSW 4 4 2 2 - - 0.0
19/02:40am 6.6 4.5 4.1 84 1.2 WSW 4 4 2 2 - - 0.0
19/02:30am 6.6 4.6 4.2 85 1.1 WSW 4 6 2 3 - - 0.0
19/02:20am 6.6 4.5 4.1 84 1.2 WSW 4 4 2 2 - - 0.0
19/02:10am 6.7 4.6 4.1 83 1.2 WSW 4 6 2 3 - - 0.0
19/02:00am 6.8 4.7 4.0 82 1.3 WSW 4 4 2 2 - - 0.0
19/01:50am 6.8 5.1 4.0 82 1.3 WSW 2 4 1 2 - - 0.0
19/01:40am 6.9 5.6 4.0 82 1.4 CALM 0 0 0 0 - - 0.0
19/01:30am 6.9 5.6 4.0 82 1.4 CALM 0 0 0 0 - - 0.0
19/01:20am 6.9 5.6 4.1 82 1.3 CALM 0 0 0 0 - - 0.0
19/01:10am 6.8 5.5 4.2 83 1.2 CALM 0 0 0 0 - - 0.0
19/01:00am 6.9 5.6 4.3 83 1.2 CALM 0 2 0 1 - - 0.0
19/12:50am 6.9 5.6 4.3 83 1.2 CALM 0 2 0 1 - - 0.0
19/12:40am 7.0 5.8 4.5 84 1.2 CALM 0 0 0 0 - - 0.0
19/12:30am 7.3 5.7 4.3 81 1.4 NNW 2 2 1 1 - - 0.0
19/12:20am 7.3 6.0 4.3 81 1.4 CALM 0 0 0 0 - - 0.0
19/12:10am 7.4 6.1 4.2 80 1.5 CALM 0 2 0 1 - - 0.0
19/12:00am 7.1 5.8 4.2 82 1.4 CALM 0 2 0 1 - - 0.0
 
Date/Time
EST
Temp
°C
App
Temp
°C
Dew
Point
°C
Rel
Hum
%
Delta-T
°C
Wind Press
QNH
hPa
Press
MSL
hPa
Rain since
9am
mm
Dir  Spd
km/h
Gust
km/h
Spd
kts
Gust
kts
18/11:50pm 6.8 5.5 4.2 83 1.2 CALM 0 0 0 0 - - 0.0
18/11:40pm 6.6 5.3 4.3 85 1.1 CALM 0 0 0 0 - - 0.0
18/11:30pm 6.9 5.7 4.4 84 1.2 CALM 0 0 0 0 - - 0.0
18/11:20pm 7.3 6.1 4.4 82 1.4 CALM 0 0 0 0 - - 0.0
18/11:10pm 7.6 6.4 4.4 80 1.5 CALM 0 2 0 1 - - 0.0
18/11:00pm 7.8 6.6 4.4 79 1.6 CALM 0 4 0 2 - - 0.0
18/10:50pm 7.7 6.1 4.4 79 1.6 ENE 2 4 1 2 - - 0.0
18/10:40pm 7.8 6.5 4.3 78 1.7 CALM 0 0 0 0 - - 0.0
18/10:30pm 7.9 6.3 4.5 79 1.6 E 2 4 1 2 - - 0.0
18/10:20pm 7.9 5.9 4.4 78 1.7 E 4 4 2 2 - - 0.0
18/10:10pm 7.8 5.8 4.5 79 1.6 ENE 4 4 2 2 - - 0.0
18/10:00pm 8.0 6.0 4.3 77 1.8 NE 4 4 2 2 - - 0.0
18/09:50pm 7.5 5.8 4.2 79 1.6 NE 2 4 1 2 - - 0.0
18/09:40pm 6.8 5.5 4.2 83 1.2 CALM 0 0 0 0 - - 0.0
18/09:30pm 6.9 5.6 4.3 83 1.2 CALM 0 0 0 0 - - 0.0
18/09:20pm 6.8 5.6 4.4 85 1.1 CALM 0 0 0 0 - - 0.0
18/09:10pm 6.6 5.0 4.6 87 0.9 WSW 2 4 1 2 - - 0.0
18/09:00pm 6.6 4.6 4.6 87 0.9 WSW 4 4 2 2 - - 0.0
18/08:50pm 6.6 4.3 4.6 87 0.9 WSW 6 6 3 3 - - 0.0
18/08:40pm 6.6 4.3 4.7 88 0.9 WSW 6 7 3 4 - - 0.0
18/08:30pm 6.6 4.1 4.7 88 0.9 WSW 7 7 4 4 - - 0.0

Latest Capital City Observations: Canberra | Sydney | Melbourne | Brisbane | Adelaide | Perth | Hobart | Darwin

Other formats

Comma delimited format used in spreadsheet applications
http://www.bom.gov.au/fwo/IDN60903/IDN60903.99145.axf

JavaScript Object Notation format (JSON) in row-major order
http://www.bom.gov.au/fwo/IDN60903/IDN60903.99145.json

Data quality

Most of these data are generated automatically and are frequently updated. Quality checks on data are not normally performed. It is possible for incorrect values to appear. Refer to information at About Latest Weather Observations and please check the disclaimer before using these data.